Time;durP1;ratioP1;P1;durP2;ratioP2;P2;SDS_P1;SDS_P2;PMS_P1;PMS_P2;Temp;Humidity;BMP_temperature;BMP_pressure;BME280_temperature;BME280_humidity;BME280_pressure;Samples;Min_cycle;Max_cycle;Signal;HPM_P1;HPM_P2
2023/09/21 00:01:07;;;;;;;6.95;1.50;;;;;;;11.81;100.00;97900.38;5066998;28;20048;-65
2023/09/21 00:03:34;;;;;;;7.20;2.05;;;;;;;11.79;100.00;97897.91;5059226;28;20060;-65
2023/09/21 00:06:03;;;;;;;6.47;1.65;;;;;;;11.83;100.00;97908.94;5061058;28;20098;-65
2023/09/21 00:08:30;;;;;;;7.22;1.67;;;;;;;11.77;100.00;97911.16;5065172;28;20048;-65
2023/09/21 00:11:04;;;;;;;6.75;1.70;;;;;;;11.88;100.00;97894.50;5068943;28;20059;-65
2023/09/21 00:13:32;;;;;;;8.52;1.65;;;;;;;11.72;100.00;97871.41;5068363;28;20490;-65
2023/09/21 00:16:00;;;;;;;7.32;1.40;;;;;;;11.77;100.00;97903.31;5072896;28;20059;-65
2023/09/21 00:18:29;;;;;;;6.05;1.50;;;;;;;11.56;100.00;97911.25;5066379;28;20049;-65
2023/09/21 00:21:00;;;;;;;7.82;1.83;;;;;;;11.64;100.00;97915.00;5073182;28;20140;-65
2023/09/21 00:23:27;;;;;;;7.22;1.85;;;;;;;11.69;100.00;97910.19;5068451;28;20055;-65
2023/09/21 00:25:58;;;;;;;9.20;2.00;;;;;;;11.54;100.00;97910.56;5070558;28;20048;-65
2023/09/21 00:28:26;;;;;;;8.60;1.70;;;;;;;11.73;100.00;97919.41;5064896;28;20053;-65
2023/09/21 00:30:53;;;;;;;6.43;1.50;;;;;;;11.78;100.00;97909.38;5065681;28;20079;-65
2023/09/21 00:33:20;;;;;;;5.93;1.42;;;;;;;11.78;100.00;97912.81;5064272;28;20056;-65
2023/09/21 00:35:47;;;;;;;9.65;1.75;;;;;;;11.68;100.00;97898.84;5062216;28;20138;-65
2023/09/21 00:38:21;;;;;;;7.50;1.48;;;;;;;11.71;100.00;97909.06;5073451;28;20135;-65
2023/09/21 00:40:48;;;;;;;8.40;1.90;;;;;;;11.41;100.00;97896.84;5061794;28;20157;-65
2023/09/21 00:43:21;;;;;;;6.28;1.80;;;;;;;11.55;100.00;97909.56;5079732;28;20059;-65
2023/09/21 00:45:53;;;;;;;10.07;2.95;;;;;;;11.57;100.00;97917.31;5068427;28;20048;-65
2023/09/21 00:48:23;;;;;;;12.10;3.23;;;;;;;11.74;100.00;97921.91;5068933;28;20066;-65
2023/09/21 00:50:54;;;;;;;6.60;1.40;;;;;;;11.69;100.00;97920.66;5069443;28;20057;-65
2023/09/21 00:53:28;;;;;;;7.32;1.65;;;;;;;11.70;100.00;97914.44;5062716;28;20053;-65
2023/09/21 00:55:58;;;;;;;9.07;1.77;;;;;;;11.60;100.00;97909.19;5065278;28;20041;-65
2023/09/21 00:58:26;;;;;;;12.75;2.40;;;;;;;11.47;100.00;97904.16;5064690;28;20079;-65
2023/09/21 01:00:56;;;;;;;7.85;1.90;;;;;;;11.50;100.00;97916.19;5060437;28;20044;-65
2023/09/21 01:03:24;;;;;;;8.52;2.00;;;;;;;11.54;100.00;97909.69;5063195;28;20106;-65
2023/09/21 01:05:59;;;;;;;9.65;2.13;;;;;;;11.48;100.00;97915.50;5071539;28;20054;-65
2023/09/21 01:08:30;;;;;;;9.63;2.08;;;;;;;11.40;100.00;97905.66;5066029;28;20053;-65
2023/09/21 01:11:04;;;;;;;7.07;1.60;;;;;;;11.56;100.00;97916.47;5071594;28;20045;-65
2023/09/21 01:13:35;;;;;;;9.65;2.00;;;;;;;11.44;100.00;97903.59;5061483;28;20076;-65
2023/09/21 01:16:04;;;;;;;6.05;1.73;;;;;;;11.45;100.00;97906.09;5069823;28;20405;-65
2023/09/21 01:18:32;;;;;;;6.38;1.98;;;;;;;11.36;100.00;97919.97;5072871;28;20052;-65
2023/09/21 01:21:07;;;;;;;7.93;1.77;;;;;;;11.39;100.00;97910.06;5055705;28;20131;-65
2023/09/21 01:23:35;;;;;;;9.60;1.80;;;;;;;11.51;100.00;97910.81;5075496;28;20080;-65
2023/09/21 01:26:03;;;;;;;9.43;1.65;;;;;;;11.66;100.00;97921.75;5068409;28;20040;-65
2023/09/21 01:28:31;;;;;;;7.22;1.70;;;;;;;11.59;100.00;97912.75;5069002;28;20140;-65
2023/09/21 01:30:57;;;;;;;4.32;1.40;;;;;;;11.53;100.00;97924.59;5056356;28;20052;-65
2023/09/21 01:33:24;;;;;;;6.38;2.15;;;;;;;11.57;100.00;97930.41;5071703;28;20076;-65
2023/09/21 01:35:51;;;;;;;6.05;1.80;;;;;;;11.57;100.00;97923.38;5074163;28;20503;-65
2023/09/21 01:38:19;;;;;;;4.63;1.40;;;;;;;11.56;100.00;97926.13;5074148;28;20056;-65
2023/09/21 01:40:46;;;;;;;5.45;1.70;;;;;;;11.50;100.00;97932.72;5070203;28;20060;-65
2023/09/21 01:43:17;;;;;;;11.00;2.33;;;;;;;11.51;100.00;97933.53;5070856;28;20059;-65
2023/09/21 01:45:48;;;;;;;10.77;1.80;;;;;;;11.46;100.00;97933.13;5067437;28;20182;-65
2023/09/21 01:48:17;;;;;;;9.13;1.70;;;;;;;11.50;100.00;97929.28;5080814;28;20482;-65
2023/09/21 01:50:50;;;;;;;10.27;2.05;;;;;;;11.40;100.00;97926.59;5071173;28;20053;-65
2023/09/21 01:53:22;;;;;;;8.93;2.45;;;;;;;11.42;100.00;97943.03;5064286;28;20086;-65
2023/09/21 01:55:50;;;;;;;8.15;1.60;;;;;;;11.27;100.00;97933.88;5065715;28;20044;-65
2023/09/21 01:58:19;;;;;;;8.13;1.92;;;;;;;11.21;100.00;97924.75;5071088;28;20600;-65
2023/09/21 02:00:50;;;;;;;7.35;2.10;;;;;;;11.11;100.00;97927.31;5079148;28;20060;-65
2023/09/21 02:03:20;;;;;;;10.10;2.03;;;;;;;11.21;100.00;97911.66;5070799;28;20060;-65
2023/09/21 02:05:47;;;;;;;6.03;1.40;;;;;;;11.22;100.00;97900.19;5065970;28;20481;-64
2023/09/21 02:08:17;;;;;;;5.57;1.52;;;;;;;11.23;100.00;97901.06;5068274;28;20136;-65
2023/09/21 02:10:44;;;;;;;6.03;1.60;;;;;;;11.13;100.00;97874.81;5078278;28;20079;-65
2023/09/21 02:13:12;;;;;;;4.78;1.60;;;;;;;11.12;100.00;97899.31;5069319;28;20056;-65
2023/09/21 02:15:40;;;;;;;10.43;1.67;;;;;;;11.25;100.00;97901.75;5065645;28;20063;-65
2023/09/21 02:18:09;;;;;;;4.47;1.45;;;;;;;11.13;100.00;97901.00;5068850;28;20406;-65
2023/09/21 02:20:42;;;;;;;4.97;1.55;;;;;;;11.09;100.00;97899.59;5082540;28;20044;-65
2023/09/21 02:23:08;;;;;;;6.80;1.55;;;;;;;11.01;100.00;97908.94;5074986;28;20053;-65
2023/09/21 02:25:38;;;;;;;5.70;1.75;;;;;;;11.02;100.00;97913.19;5071298;28;20713;-65
2023/09/21 02:28:12;;;;;;;7.25;1.63;;;;;;;10.91;100.00;97922.94;5070054;28;20070;-65
2023/09/21 02:30:47;;;;;;;;;;;;;;;11.08;100.00;97914.47;5075969;28;20581;-65
2023/09/21 02:33:16;;;;;;;7.80;1.75;;;;;;;10.93;100.00;97915.78;5075863;28;19923;-65
2023/09/21 02:35:46;;;;;;;5.35;1.40;;;;;;;11.04;100.00;97920.94;5081494;28;20040;-65
2023/09/21 02:38:16;;;;;;;5.82;1.42;;;;;;;11.05;100.00;97919.13;5072216;28;20055;-65
2023/09/21 02:40:45;;;;;;;6.55;1.85;;;;;;;11.08;100.00;97913.63;5071620;28;20080;-65
2023/09/21 02:43:13;;;;;;;7.72;2.15;;;;;;;10.86;100.00;97912.00;5069538;28;20048;-65
2023/09/21 02:45:46;;;;;;;10.50;2.22;;;;;;;10.87;100.00;97904.03;5074242;28;20465;-65
2023/09/21 02:48:15;;;;;;;7.35;1.70;;;;;;;10.96;100.00;97903.25;5068803;28;20059;-65
2023/09/21 02:50:48;;;;;;;6.55;1.70;;;;;;;10.95;100.00;97909.44;5082200;28;20048;-65
2023/09/21 02:53:17;;;;;;;3.77;1.50;;;;;;;10.88;100.00;97903.06;5070760;28;20052;-65
2023/09/21 02:56:02;;;;;;;8.82;1.73;;;;;;;10.83;100.00;97902.63;5055831;28;20171;-64
2023/09/21 02:58:29;;;;;;;7.35;1.77;;;;;;;10.62;100.00;97898.22;5069430;28;20053;-65
2023/09/21 03:00:55;;;;;;;6.22;1.92;;;;;;;10.63;100.00;97905.09;5071639;28;20048;-65
2023/09/21 03:03:31;;;;;;;5.00;1.67;;;;;;;10.75;100.00;97918.16;5071199;28;20048;-65
2023/09/21 03:06:01;;;;;;;7.13;1.80;;;;;;;10.82;100.00;97921.91;5067537;28;20048;-65
2023/09/21 03:08:28;;;;;;;4.80;1.63;;;;;;;10.66;100.00;97905.81;5065306;28;20505;-64
2023/09/21 03:10:55;;;;;;;4.65;1.40;;;;;;;10.85;100.00;97910.34;5073318;28;20051;-64
2023/09/21 03:13:22;;;;;;;6.78;2.00;;;;;;;10.64;100.00;97906.78;5067971;28;20057;-64
2023/09/21 03:15:54;;;;;;;7.72;1.95;;;;;;;10.81;100.00;97910.59;5067027;28;20044;-64
2023/09/21 03:18:24;;;;;;;10.05;2.17;;;;;;;10.67;100.00;97910.91;5067344;28;20066;-64
2023/09/21 03:20:54;;;;;;;6.55;1.63;;;;;;;10.72;100.00;97897.47;5059354;28;20071;-65
2023/09/21 03:23:22;;;;;;;11.00;2.72;;;;;;;10.67;100.00;97907.47;5070931;28;20135;-65
2023/09/21 03:25:53;;;;;;;7.90;1.40;;;;;;;10.68;100.00;97909.13;5065860;28;20055;-65
2023/09/21 03:28:22;;;;;;;6.10;2.00;;;;;;;10.79;100.00;97896.81;5067651;28;20056;-64
2023/09/21 03:30:51;;;;;;;7.40;2.15;;;;;;;10.83;100.00;97906.06;5059151;28;20072;-64
2023/09/21 03:33:31;;;;;;;8.70;2.28;;;;;;;10.60;100.00;97896.69;5070045;28;20063;-64
2023/09/21 03:35:59;;;;;;;8.68;1.77;;;;;;;10.66;100.00;97896.19;5064837;28;20513;-64
2023/09/21 03:38:27;;;;;;;7.80;2.53;;;;;;;10.63;100.00;97897.25;5066113;28;20045;-64
2023/09/21 03:40:56;;;;;;;14.27;2.38;;;;;;;10.56;100.00;97909.19;5070956;28;20478;-64
2023/09/21 03:43:23;;;;;;;7.60;2.17;;;;;;;10.68;100.00;97915.22;5061540;28;20052;-64
2023/09/21 03:45:50;;;;;;;13.13;2.00;;;;;;;10.77;100.00;97905.75;5067249;28;20048;-64
2023/09/21 03:48:18;;;;;;;8.07;1.83;;;;;;;10.79;100.00;97909.06;5059887;28;20140;-64
2023/09/21 03:50:47;;;;;;;6.93;1.60;;;;;;;10.66;100.00;97897.97;5067463;28;20056;-64
2023/09/21 03:53:14;;;;;;;7.40;1.90;;;;;;;10.80;100.00;97901.09;5070014;28;20733;-65
2023/09/21 03:55:41;;;;;;;12.68;2.13;;;;;;;10.83;100.00;97907.84;5060651;28;20072;-64
2023/09/21 03:58:15;;;;;;;8.50;1.95;;;;;;;10.93;100.00;97910.53;5068245;28;20057;-65
2023/09/21 04:00:48;;;;;;;10.02;2.05;;;;;;;10.85;100.00;97892.03;5073507;28;20053;-65
2023/09/21 04:03:16;;;;;;;6.00;1.80;;;;;;;10.93;100.00;97913.16;5065885;28;20056;-65
2023/09/21 04:05:44;;;;;;;5.45;1.75;;;;;;;10.76;100.00;97889.22;5059695;28;20063;-65
2023/09/21 04:08:11;;;;;;;4.47;1.65;;;;;;;10.87;100.00;97904.03;5069414;28;20222;-65
2023/09/21 04:10:39;;;;;;;7.25;1.92;;;;;;;10.91;100.00;97899.38;5074781;28;20044;-65
2023/09/21 04:13:06;;;;;;;8.48;2.00;;;;;;;10.83;100.00;97911.28;5072531;28;20421;-65
2023/09/21 04:15:33;;;;;;;8.10;2.00;;;;;;;10.73;100.00;97901.72;5062037;28;20056;-65
2023/09/21 04:18:01;;;;;;;6.03;2.15;;;;;;;10.85;100.00;97915.59;5063453;28;20052;-65
2023/09/21 04:20:34;;;;;;;7.25;1.58;;;;;;;10.81;100.00;97912.38;5076992;28;20059;-65
2023/09/21 04:23:02;;;;;;;;;;;;;;;10.88;100.00;97918.78;5070643;28;20448;-65
2023/09/21 04:25:29;;;;;;;7.35;1.63;;;;;;;10.80;100.00;97911.56;5076146;28;19929;-65
2023/09/21 04:27:56;;;;;;;6.57;1.85;;;;;;;10.92;100.00;97906.25;5068565;28;20050;-65
2023/09/21 04:30:22;;;;;;;7.70;1.80;;;;;;;10.64;100.00;97893.69;5069085;28;20095;-65
2023/09/21 04:32:54;;;;;;;7.82;2.15;;;;;;;10.86;100.00;97931.16;5070527;28;20067;-65
2023/09/21 04:35:22;;;;;;;5.25;1.70;;;;;;;10.98;100.00;97938.00;5051319;28;20049;-65
2023/09/21 04:37:58;;;;;;;5.10;1.60;;;;;;;11.00;100.00;97935.25;5074563;28;20408;-65
2023/09/21 04:40:26;;;;;;;7.05;2.20;;;;;;;10.94;100.00;97927.88;5072514;28;20044;-65
2023/09/21 04:42:53;;;;;;;5.68;1.83;;;;;;;11.13;100.00;97932.41;5060678;28;20459;-65
2023/09/21 04:45:22;;;;;;;5.00;1.60;;;;;;;11.07;100.00;97930.34;5070663;28;20048;-65
2023/09/21 04:47:52;;;;;;;7.82;2.20;;;;;;;11.08;100.00;97938.03;5072648;28;20120;-65
2023/09/21 04:50:19;;;;;;;8.45;1.98;;;;;;;11.24;100.00;97934.13;5068940;28;20052;-65
2023/09/21 04:52:48;;;;;;;6.28;1.70;;;;;;;11.19;100.00;97926.66;5067618;28;20060;-65
2023/09/21 04:55:25;;;;;;;7.22;2.10;;;;;;;11.21;100.00;97930.00;5071818;28;20052;-65
2023/09/21 04:57:55;;;;;;;11.32;2.03;;;;;;;11.00;100.00;97928.22;5065148;28;20060;-65
2023/09/21 05:00:26;;;;;;;6.80;1.95;;;;;;;11.06;100.00;97920.81;5070110;28;20057;-65
2023/09/21 05:02:54;;;;;;;9.05;1.90;;;;;;;11.06;100.00;97918.19;5056474;28;20053;-65
2023/09/21 05:05:24;;;;;;;8.98;2.10;;;;;;;10.73;100.00;97902.56;5063261;28;20139;-65
2023/09/21 05:07:52;;;;;;;5.57;1.70;;;;;;;10.67;100.00;97910.91;5079554;28;20472;-65
2023/09/21 05:10:19;;;;;;;9.93;2.35;;;;;;;10.62;100.00;97902.63;5072072;28;20515;-65
2023/09/21 05:12:48;;;;;;;7.63;1.75;;;;;;;10.75;100.00;97912.91;5063956;28;20127;-65
2023/09/21 05:15:15;;;;;;;7.07;1.80;;;;;;;10.71;100.00;97901.88;5069453;28;20053;-65
2023/09/21 05:17:42;;;;;;;9.18;2.05;;;;;;;10.68;100.00;97896.88;5067974;28;20549;-65
2023/09/21 05:20:11;;;;;;;7.10;1.75;;;;;;;10.68;100.00;97912.59;5093349;28;20138;-65
2023/09/21 05:22:39;;;;;;;9.70;2.50;;;;;;;10.62;100.00;97887.78;5071291;28;20040;-65
2023/09/21 05:25:09;;;;;;;6.80;1.70;;;;;;;10.71;100.00;97903.63;5076303;28;20071;-65
2023/09/21 05:27:36;;;;;;;7.05;1.75;;;;;;;10.71;100.00;97908.88;5070045;28;20071;-65
2023/09/21 05:30:08;;;;;;;15.00;3.10;;;;;;;10.64;100.00;97900.69;5076612;28;20409;-65
2023/09/21 05:32:37;;;;;;;7.43;2.78;;;;;;;10.60;100.00;97909.75;5072780;28;20044;-65
2023/09/21 05:35:06;;;;;;;8.20;2.00;;;;;;;10.58;100.00;97898.59;5086802;28;20052;-65
2023/09/21 05:37:36;;;;;;;7.40;2.13;;;;;;;10.57;100.00;97894.31;5077272;28;20127;-65
2023/09/21 05:40:05;;;;;;;9.20;2.15;;;;;;;10.47;100.00;97896.06;5071180;28;20105;-66
2023/09/21 05:42:33;;;;;;;6.28;1.90;;;;;;;10.45;100.00;97904.84;5064042;28;20561;-65
2023/09/21 05:45:00;;;;;;;6.82;1.70;;;;;;;10.54;100.00;97900.66;5084420;28;20055;-65
2023/09/21 05:47:32;;;;;;;5.65;1.55;;;;;;;10.59;100.00;97905.50;5065902;28;20040;-65
2023/09/21 05:49:59;;;;;;;8.02;1.80;;;;;;;10.48;100.00;97900.31;5059040;28;20111;-65
2023/09/21 05:52:26;;;;;;;10.10;1.75;;;;;;;10.48;100.00;97897.69;5074306;28;20119;-65
2023/09/21 05:54:53;;;;;;;6.15;1.70;;;;;;;10.39;100.00;97892.28;5070730;28;20049;-65
2023/09/21 05:57:21;;;;;;;8.18;2.15;;;;;;;10.45;100.00;97896.19;5067507;28;20052;-65
2023/09/21 05:59:49;;;;;;;7.18;1.88;;;;;;;10.54;100.00;97891.97;5067672;28;20079;-64
2023/09/21 06:02:16;;;;;;;7.50;1.88;;;;;;;10.55;100.00;97894.47;5073099;28;20041;-64
2023/09/21 06:04:42;;;;;;;8.20;1.55;;;;;;;10.39;100.00;97878.34;5069618;28;20082;-65
2023/09/21 06:07:11;;;;;;;8.05;2.00;;;;;;;10.52;100.00;97886.88;5066013;28;20048;-65
2023/09/21 06:09:38;;;;;;;10.13;2.03;;;;;;;10.55;100.00;97886.63;5076507;28;20051;-65
2023/09/21 06:12:10;;;;;;;7.15;2.20;;;;;;;10.57;100.00;97889.09;5065510;28;20053;-65
2023/09/21 06:14:37;;;;;;;9.53;2.53;;;;;;;10.51;100.00;97900.06;5069358;28;20512;-64
2023/09/21 06:17:06;;;;;;;10.93;2.80;;;;;;;10.36;100.00;97894.31;5058830;28;20313;-64
2023/09/21 06:19:35;;;;;;;8.57;1.80;;;;;;;10.59;100.00;97897.66;5063799;28;20391;-64
2023/09/21 06:22:06;;;;;;;8.48;1.92;;;;;;;10.52;100.00;97886.88;5070730;28;20075;-64
2023/09/21 06:24:48;;;;;;;14.50;2.20;;;;;;;10.58;100.00;97901.22;5074153;28;20528;-64
2023/09/21 06:27:18;;;;;;;6.35;1.70;;;;;;;10.59;100.00;97898.47;5066523;28;20041;-64
2023/09/21 06:29:52;;;;;;;7.43;1.73;;;;;;;10.57;100.00;97897.78;5055642;28;20106;-64
2023/09/21 06:32:18;;;;;;;10.52;1.80;;;;;;;10.65;100.00;97918.06;5070962;28;20139;-64
2023/09/21 06:34:45;;;;;;;8.02;1.80;;;;;;;10.76;100.00;97920.63;5064255;28;20124;-65
2023/09/21 06:37:12;;;;;;;8.43;3.05;;;;;;;10.68;100.00;97940.53;5071557;28;20053;-64
2023/09/21 06:39:40;;;;;;;10.80;2.00;;;;;;;10.89;100.00;97941.38;5072207;28;20059;-64
2023/09/21 06:42:08;;;;;;;5.60;1.83;;;;;;;10.87;100.00;97934.59;5066580;28;20067;-65
2023/09/21 06:44:35;;;;;;;12.55;1.95;;;;;;;11.03;100.00;97948.09;5072589;28;20056;-65
2023/09/21 06:47:02;;;;;;;10.25;2.20;;;;;;;11.68;100.00;97929.47;5058812;28;20399;-65
2023/09/21 06:49:29;;;;;;;8.02;2.30;;;;;;;11.75;100.00;97933.22;5074893;28;20053;-65
2023/09/21 06:51:56;;;;;;;9.65;3.08;;;;;;;11.95;100.00;97924.47;5057408;28;20478;-63
2023/09/21 06:54:24;;;;;;;9.52;2.35;;;;;;;11.90;100.00;97902.22;5057523;28;20430;-65
2023/09/21 06:56:51;;;;;;;7.35;1.90;;;;;;;11.72;100.00;97925.63;5068147;28;20052;-64
2023/09/21 06:59:18;;;;;;;8.27;2.25;;;;;;;11.50;100.00;97919.63;5057200;28;20355;-65
2023/09/21 07:01:45;;;;;;;7.72;2.03;;;;;;;11.46;100.00;97925.28;5067872;28;20052;-65
2023/09/21 07:04:11;;;;;;;7.63;2.15;;;;;;;12.10;100.00;97924.09;5059942;28;20045;-66
2023/09/21 07:06:39;;;;;;;4.75;1.50;;;;;;;13.03;100.00;97914.78;5052704;28;20540;-66
2023/09/21 07:09:06;;;;;;;7.70;1.75;;;;;;;13.17;100.00;97910.03;5061334;28;20146;-66
2023/09/21 07:11:33;;;;;;;12.80;1.80;;;;;;;13.39;100.00;97909.72;5065967;28;20071;-66
2023/09/21 07:14:00;;;;;;;7.20;1.60;;;;;;;12.98;100.00;97917.00;5077540;28;20072;-67
2023/09/21 07:16:27;;;;;;;14.30;2.38;;;;;;;12.79;100.00;97902.09;5065847;28;20110;-67
2023/09/21 07:18:54;;;;;;;8.68;2.17;;;;;;;12.81;100.00;97908.03;5061761;28;20041;-66
2023/09/21 07:21:20;;;;;;;10.23;2.15;;;;;;;13.05;100.00;97897.06;5064689;28;20058;-66
2023/09/21 07:23:47;;;;;;;7.45;2.00;;;;;;;13.83;100.00;97917.81;5060934;28;20054;-66
2023/09/21 07:26:14;;;;;;;8.52;1.80;;;;;;;13.80;100.00;97915.47;5063799;28;20048;-66
2023/09/21 07:28:41;;;;;;;6.90;1.80;;;;;;;13.65;100.00;97920.38;5065485;28;20048;-67
2023/09/21 07:31:09;;;;;;;10.85;1.75;;;;;;;13.85;100.00;97915.84;5060189;28;20094;-67
2023/09/21 07:33:36;;;;;;;8.80;2.20;;;;;;;13.98;100.00;97943.59;5060878;28;20049;-67
2023/09/21 07:36:04;;;;;;;7.03;1.90;;;;;;;13.55;100.00;97922.22;5064074;28;20318;-66
2023/09/21 07:38:31;;;;;;;11.30;2.35;;;;;;;13.27;100.00;97924.78;5073807;28;20045;-66
2023/09/21 07:40:57;;;;;;;9.90;2.00;;;;;;;13.40;100.00;97937.66;5060175;28;20045;-66
2023/09/21 07:43:24;;;;;;;10.88;2.33;;;;;;;13.38;100.00;97938.75;5066190;28;20126;-67
2023/09/21 07:45:53;;;;;;;5.10;1.42;;;;;;;13.24;100.00;97919.00;5059204;28;20088;-67
2023/09/21 07:48:22;;;;;;;5.90;1.60;;;;;;;13.22;100.00;97928.81;5069498;28;20060;-67
2023/09/21 07:50:50;;;;;;;8.60;1.92;;;;;;;12.99;100.00;97949.34;5062400;28;20429;-67
2023/09/21 07:53:19;;;;;;;9.52;2.50;;;;;;;13.03;100.00;97932.31;5059623;28;20095;-67
2023/09/21 07:55:45;;;;;;;9.32;2.00;;;;;;;12.93;100.00;97945.50;5053763;28;20051;-67
2023/09/21 07:58:12;;;;;;;5.15;1.90;;;;;;;12.77;100.00;97934.75;5061603;28;20087;-67
2023/09/21 08:00:39;;;;;;;10.50;2.35;;;;;;;13.00;100.00;97949.19;5067878;28;20413;-67
2023/09/21 08:03:06;;;;;;;7.57;1.90;;;;;;;13.06;100.00;97942.56;5057684;28;20463;-67
2023/09/21 08:05:34;;;;;;;10.57;1.80;;;;;;;13.20;100.00;97949.16;5064027;28;20546;-67
2023/09/21 08:08:01;;;;;;;8.77;2.00;;;;;;;13.13;100.00;97953.31;5063908;28;20474;-67
2023/09/21 08:10:32;;;;;;;9.65;2.03;;;;;;;13.07;100.00;97962.59;5063461;28;20058;-67
2023/09/21 08:12:59;;;;;;;8.88;2.67;;;;;;;12.84;100.00;97941.09;5064817;28;20053;-68
2023/09/21 08:15:25;;;;;;;7.65;1.98;;;;;;;13.16;100.00;97969.63;5063666;28;20048;-67
2023/09/21 08:17:53;;;;;;;6.70;2.10;;;;;;;12.92;100.00;97972.69;5055460;28;20510;-67
2023/09/21 08:20:22;;;;;;;7.13;1.60;;;;;;;12.98;100.00;97961.66;5060614;28;20052;-67
2023/09/21 08:22:49;;;;;;;10.52;1.67;;;;;;;13.06;100.00;97953.88;5065854;28;20048;-67
2023/09/21 08:25:16;;;;;;;8.48;2.15;;;;;;;13.04;100.00;97955.81;5058897;28;20418;-66
2023/09/21 08:27:43;;;;;;;8.88;2.40;;;;;;;12.98;100.00;97950.28;5064734;28;20044;-66
2023/09/21 08:30:10;;;;;;;8.40;1.88;;;;;;;12.75;100.00;97940.13;5061987;28;20052;-66
2023/09/21 08:32:39;;;;;;;9.55;1.92;;;;;;;12.89;100.00;97942.31;5064871;28;20054;-66
2023/09/21 08:35:07;;;;;;;7.13;1.90;;;;;;;13.07;100.00;97959.97;5064104;28;20450;-66
2023/09/21 08:37:36;;;;;;;6.28;1.77;;;;;;;12.86;100.00;97942.59;5057855;28;20045;-66
2023/09/21 08:40:06;;;;;;;13.88;1.90;;;;;;;13.09;100.00;97955.41;5059092;28;20449;-67
2023/09/21 08:42:36;;;;;;;7.60;1.80;;;;;;;13.09;100.00;97956.22;5083476;28;20509;-67
2023/09/21 08:45:07;;;;;;;6.32;1.60;;;;;;;13.23;100.00;97954.13;5068467;28;20113;-67
2023/09/21 08:47:37;;;;;;;9.57;2.15;;;;;;;13.14;100.00;97960.22;5068509;28;20053;-67
2023/09/21 08:50:04;;;;;;;7.80;1.80;;;;;;;13.09;100.00;97955.41;5067262;28;20540;-67
2023/09/21 08:52:32;;;;;;;7.07;2.00;;;;;;;13.30;100.00;97963.09;5069566;28;20238;-67
2023/09/21 08:54:59;;;;;;;7.90;2.10;;;;;;;13.39;100.00;97956.19;5069414;28;20050;-67
2023/09/21 08:57:26;;;;;;;15.20;2.65;;;;;;;13.19;100.00;97950.97;5074904;28;20059;-67
2023/09/21 08:59:55;;;;;;;8.77;1.70;;;;;;;13.31;100.00;97959.50;5068894;28;20053;-67
2023/09/21 09:02:23;;;;;;;7.13;1.83;;;;;;;13.36;100.00;97951.22;5068735;28;20052;-67
2023/09/21 09:04:51;;;;;;;7.40;1.70;;;;;;;13.54;100.00;97951.28;5068967;28;20509;-67
2023/09/21 09:07:18;;;;;;;7.13;1.67;;;;;;;13.59;100.00;97952.50;5077896;28;20090;-67
2023/09/21 09:09:46;;;;;;;9.07;2.25;;;;;;;13.36;100.00;97946.78;5068734;28;20098;-67
2023/09/21 09:12:23;;;;;;;13.80;1.92;;;;;;;13.37;100.00;97969.47;5068230;28;20448;-67
2023/09/21 09:14:52;;;;;;;7.70;1.85;;;;;;;13.83;100.00;97948.53;5067832;28;20534;-67
2023/09/21 09:17:19;;;;;;;7.72;1.80;;;;;;;13.98;100.00;97944.41;5069689;28;20048;-67
2023/09/21 09:19:47;;;;;;;12.05;1.92;;;;;;;13.94;100.00;97945.69;5082214;28;20049;-67
2023/09/21 09:22:15;;;;;;;5.07;1.40;;;;;;;14.13;100.00;97939.50;5067459;28;20060;-67
2023/09/21 09:24:42;;;;;;;11.48;1.98;;;;;;;14.42;100.00;97946.34;5070179;28;20044;-67
2023/09/21 09:27:08;;;;;;;4.68;1.40;;;;;;;14.33;100.00;97960.41;5064329;28;20423;-67
2023/09/21 09:29:52;;;;;;;5.93;1.42;;;;;;;14.63;100.00;97943.44;5071072;28;20083;-67
2023/09/21 09:32:19;;;;;;;8.50;1.85;;;;;;;14.76;100.00;97935.97;5058032;28;20056;-67
2023/09/21 09:34:47;;;;;;;5.93;1.50;;;;;;;15.10;100.00;97948.44;5056448;28;20078;-67
2023/09/21 09:37:15;;;;;;;9.02;2.05;;;;;;;15.37;100.00;97946.59;5069365;28;20044;-67
2023/09/21 09:39:46;;;;;;;7.05;1.45;;;;;;;15.29;100.00;97942.09;5069166;28;20665;-67
2023/09/21 09:42:13;;;;;;;7.40;1.75;;;;;;;15.60;100.00;97946.88;5070192;28;20052;-67
2023/09/21 09:44:45;;;;;;;10.38;2.08;;;;;;;15.49;100.00;97949.78;5069322;28;20135;-67
2023/09/21 09:47:16;;;;;;;7.78;1.75;;;;;;;15.48;100.00;97956.88;5062315;28;20470;-67
2023/09/21 09:49:47;;;;;;;7.28;1.70;;;;;;;15.44;100.00;97945.00;5071214;28;20050;-67
2023/09/21 09:52:18;;;;;;;6.65;1.80;;;;;;;15.58;100.00;97946.19;5070822;28;20410;-67
2023/09/21 09:54:48;;;;;;;8.05;2.08;;;;;;;15.44;100.00;97945.00;5061658;28;20087;-67
2023/09/21 09:57:16;;;;;;;7.15;1.48;;;;;;;15.52;100.00;97946.84;5056675;28;20037;-67
2023/09/21 09:59:44;;;;;;;9.15;1.67;;;;;;;15.50;100.00;97940.91;5071366;28;20064;-67
2023/09/21 10:02:18;;;;;;;13.52;1.83;;;;;;;14.90;100.00;97939.03;5069264;28;20087;-67
2023/09/21 10:04:49;;;;;;;7.13;1.45;;;;;;;14.85;100.00;97943.94;5053652;28;20388;-67
2023/09/21 10:07:17;;;;;;;9.07;1.85;;;;;;;14.52;100.00;97941.84;5070930;28;20052;-67
2023/09/21 10:09:47;;;;;;;7.80;1.92;;;;;;;14.79;100.00;97932.22;5072204;28;20060;-67
2023/09/21 10:12:19;;;;;;;5.90;1.50;;;;;;;14.78;100.00;97944.56;5072339;28;20057;-67
2023/09/21 10:14:49;;;;;;;13.70;2.22;;;;;;;14.67;100.00;97944.78;5071917;28;20048;-67
2023/09/21 10:17:24;;;;;;;9.88;2.35;;;;;;;14.64;100.00;97944.25;5067975;28;20056;-67
2023/09/21 10:19:50;;;;;;;6.55;1.52;;;;;;;14.66;100.00;97944.94;5070617;28;20057;-67
2023/09/21 10:22:26;;;;;;;6.93;1.35;;;;;;;14.49;100.00;97949.22;5071903;28;20048;-67
2023/09/21 10:24:58;;;;;;;6.45;1.42;;;;;;;14.58;100.00;97949.16;5062115;28;20135;-67
2023/09/21 10:27:33;;;;;;;9.93;1.70;;;;;;;14.59;100.00;97945.56;5062149;28;20496;-67
2023/09/21 10:30:08;;;;;;;8.52;2.30;;;;;;;14.79;100.00;97937.50;5058072;28;20091;-67
2023/09/21 10:32:44;;;;;;;7.80;1.50;;;;;;;14.82;100.00;97929.28;5071677;28;20052;-67
2023/09/21 10:35:42;;;;;;;4.70;1.50;;;;;;;14.69;100.00;97939.38;5067353;28;20048;-67
2023/09/21 10:38:13;;;;;;;7.50;1.70;;;;;;;15.17;100.00;97944.19;5053200;28;20052;-67
2023/09/21 10:40:40;;;;;;;7.07;1.63;;;;;;;15.22;100.00;97941.06;5057877;28;20044;-67
2023/09/21 10:43:35;;;;;;;6.20;1.10;;;;;;;15.35;100.00;97933.56;5071672;28;20486;-67
2023/09/21 10:46:06;;;;;;;7.78;1.50;;;;;;;15.48;100.00;97937.59;5060500;28;20401;-67
2023/09/21 10:48:33;;;;;;;9.50;1.88;;;;;;;15.60;100.00;97933.69;5070438;28;20192;-67
2023/09/21 10:51:00;;;;;;;5.57;1.60;;;;;;;15.81;100.00;97919.28;5070036;28;20044;-67
2023/09/21 10:53:27;;;;;;;5.15;1.33;;;;;;;15.94;100.00;97935.50;5057671;28;20053;-67
2023/09/21 10:55:54;;;;;;;6.13;1.20;;;;;;;15.66;100.00;97940.16;5051309;28;20049;-67
2023/09/21 10:58:24;;;;;;;3.22;1.10;;;;;;;15.77;100.00;97942.53;5069499;28;20628;-67
2023/09/21 11:00:51;;;;;;;8.32;1.60;;;;;;;15.83;100.00;97948.97;5053024;28;20087;-67
2023/09/21 11:03:18;;;;;;;8.07;1.30;;;;;;;15.80;100.00;97938.75;5061216;28;20382;-67
2023/09/21 11:05:46;;;;;;;3.08;0.93;;;;;;;15.94;100.00;97941.59;5070906;28;20041;-67
2023/09/21 11:08:15;;;;;;;6.25;1.05;;;;;;;15.96;100.00;97957.28;5064256;28;20046;-67
2023/09/21 11:10:42;;;;;;;4.97;1.13;;;;;;;16.07;100.00;97969.34;5086307;28;20143;-67
2023/09/21 11:13:09;;;;;;;5.13;1.10;;;;;;;16.46;100.00;97976.69;5078917;28;20494;-67
2023/09/21 11:15:36;;;;;;;5.22;1.10;;;;;;;16.50;100.00;97976.22;5064469;28;20044;-67
2023/09/21 11:18:04;;;;;;;4.07;1.13;;;;;;;16.51;100.00;97996.34;5070378;28;20076;-67
2023/09/21 11:20:32;;;;;;;4.63;1.10;;;;;;;16.78;100.00;97975.09;5058445;28;20082;-67
2023/09/21 11:23:01;;;;;;;7.88;1.42;;;;;;;16.80;100.00;97986.31;5068816;28;20040;-67
2023/09/21 11:25:28;;;;;;;5.13;1.20;;;;;;;16.97;100.00;97987.19;5070790;28;20057;-67
2023/09/21 11:27:58;;;;;;;5.28;1.30;;;;;;;16.80;100.00;97983.66;5066275;28;20041;-67
2023/09/21 11:30:25;;;;;;;3.97;1.10;;;;;;;17.57;100.00;97980.66;5059548;28;20052;-68
2023/09/21 11:32:54;;;;;;;5.35;1.10;;;;;;;17.91;100.00;97995.47;5070768;28;20395;-67